Fairbury, Nebraska
Current Conditions -  °F | °C
As of 4:15 AM on Saturday 20 Dec 2014 (Local Time) from KHJH Reporting Station
Moderate Fog Moderate Fog  
Wind Chill: 27°   Ceiling: 100
Heat Index: 31°   Visibility: 0.5mi
Dew Point: 30°   Wind: 5mph
Humidity: 95%   Direction: 210°SSW
Pressure: 30.08"   Gusts: NA
Location:  40.14°N, 97.18°W
Report Text: KHJH 201015Z AUTO 21004KT 1/2SM FZFG OVC001 00/M01 A3008 RMK AO2 T10031010
Loading
Personal Weather Stations






























Interactive Weather Map New forecast layout! Learn more

10-Day Weather Forecast

Advertisements
Track Severe Weather on mobile